Time;durP1;ratioP1;P1;durP2;ratioP2;P2;SDS_P1;SDS_P2;PMS_P1;PMS_P2;Temp;Humidity;BMP_temperature;BMP_pressure;BME280_temperature;BME280_humidity;BME280_pressure;Samples;Min_cycle;Max_cycle;Signal;HPM_P1;HPM_P2
2020/12/17 00:00:37;;;;;;;0.00;0.00;;;15.20;90.50;;;;;;4231031;28;20059;-40
2020/12/17 00:02:58;;;;;;;0.00;0.00;;;15.20;90.50;;;;;;4230878;28;20105;-40
2020/12/17 00:05:21;;;;;;;0.10;0.10;;;15.20;90.50;;;;;;4230683;28;20047;-40
2020/12/17 00:07:43;;;;;;;1.20;1.20;;;15.20;90.50;;;;;;4230869;28;20051;-41
2020/12/17 00:10:05;;;;;;;1.15;1.15;;;15.20;90.60;;;;;;4230885;28;20054;-41
2020/12/17 00:12:26;;;;;;;1.95;0.65;;;15.20;90.60;;;;;;4230857;27;20508;-41
2020/12/17 00:14:46;;;;;;;1.33;0.82;;;15.20;90.60;;;;;;4231068;28;20047;-41
2020/12/17 00:17:07;;;;;;;0.00;0.00;;;15.20;90.60;;;;;;4230372;28;20048;-42
2020/12/17 00:19:28;;;;;;;0.13;0.13;;;15.20;90.60;;;;;;4226689;28;20059;-40
2020/12/17 00:21:52;;;;;;;0.15;0.15;;;15.20;90.70;;;;;;4230391;28;20056;-40
2020/12/17 00:24:13;;;;;;;0.05;0.05;;;15.20;90.60;;;;;;4230278;28;20109;-41
2020/12/17 00:26:34;;;;;;;0.43;0.43;;;15.20;90.70;;;;;;4230342;28;20494;-41
2020/12/17 00:28:55;;;;;;;0.35;0.35;;;15.10;90.70;;;;;;4230063;28;20047;-41
2020/12/17 00:31:17;;;;;;;0.52;0.52;;;15.10;90.70;;;;;;4230713;28;20704;-40
2020/12/17 00:33:38;;;;;;;0.00;0.00;;;15.10;90.70;;;;;;4230501;28;20104;-40
2020/12/17 00:35:59;;;;;;;0.10;0.10;;;15.10;90.70;;;;;;4230434;28;20040;-42
2020/12/17 00:38:21;;;;;;;0.22;0.22;;;15.10;90.70;;;;;;4229644;27;20097;-40
2020/12/17 00:40:42;;;;;;;0.30;0.30;;;15.10;90.80;;;;;;4230116;28;20418;-40
2020/12/17 00:43:03;;;;;;;0.00;0.00;;;15.10;90.80;;;;;;4230086;28;20055;-40
2020/12/17 00:45:24;;;;;;;0.10;0.10;;;15.10;90.80;;;;;;4229658;28;20047;-41
2020/12/17 00:47:44;;;;;;;0.08;0.08;;;15.10;90.80;;;;;;4229718;28;20079;-40
2020/12/17 00:50:07;;;;;;;0.00;0.00;;;15.10;90.80;;;;;;4229881;28;20060;-40
2020/12/17 00:52:28;;;;;;;0.20;0.20;;;15.00;90.80;;;;;;4229935;28;20058;-40
2020/12/17 00:54:53;;;;;;;0.35;0.35;;;15.00;90.90;;;;;;4229910;28;20142;-40
2020/12/17 00:57:14;;;;;;;0.50;0.50;;;15.00;90.90;;;;;;4217184;28;20048;-42
2020/12/17 00:59:35;;;;;;;0.15;0.15;;;15.00;90.90;;;;;;4230264;28;20163;-41
2020/12/17 01:01:56;;;;;;;0.52;0.52;;;15.00;90.90;;;;;;4229895;28;20501;-40
2020/12/17 01:04:17;;;;;;;0.20;0.20;;;15.00;90.90;;;;;;4229566;28;20055;-40
2020/12/17 01:06:38;;;;;;;0.10;0.10;;;15.00;90.90;;;;;;4230232;28;20121;-40
2020/12/17 01:08:59;;;;;;;0.20;0.20;;;15.00;91.30;;;;;;4213287;28;20048;-40
2020/12/17 01:11:26;;;;;;;;;;;15.00;90.90;;;;;;4213521;28;20052;-40
2020/12/17 01:13:47;;;;;;;0.00;0.00;;;15.00;90.90;;;;;;4220864;28;19926;-40
2020/12/17 01:16:09;;;;;;;0.00;0.00;;;15.00;90.90;;;;;;4228759;28;20166;-40
2020/12/17 01:18:30;;;;;;;0.25;0.25;;;15.00;90.90;;;;;;4228973;28;20485;-39
2020/12/17 01:20:51;;;;;;;;;;;15.00;91.00;;;;;;4230013;27;20047;-40
2020/12/17 01:23:12;;;;;;;0.15;0.15;;;15.00;90.90;;;;;;4229170;28;19923;-40
2020/12/17 01:25:33;;;;;;;0.15;0.15;;;15.00;90.90;;;;;;4229300;28;20056;-39
2020/12/17 01:27:55;;;;;;;0.38;0.38;;;15.10;90.70;;;;;;4229031;27;20040;-40
2020/12/17 01:30:16;;;;;;;0.00;0.00;;;15.20;90.60;;;;;;4229186;28;20399;-40
2020/12/17 01:32:37;;;;;;;2.75;0.95;;;15.30;90.40;;;;;;4229108;28;20510;-40
2020/12/17 01:34:58;;;;;;;0.20;0.20;;;15.40;90.20;;;;;;4229519;28;20047;-40
2020/12/17 01:37:19;;;;;;;0.03;0.03;;;15.50;90.00;;;;;;4228997;28;20417;-40
2020/12/17 01:39:40;;;;;;;0.00;0.00;;;15.50;89.80;;;;;;4229079;28;20360;-40
2020/12/17 01:42:00;;;;;;;3.20;1.17;;;15.60;89.60;;;;;;4229263;28;20079;-40
2020/12/17 01:44:22;;;;;;;0.43;0.43;;;15.60;89.50;;;;;;4228284;28;20153;-40
2020/12/17 01:46:43;;;;;;;0.38;0.38;;;15.60;89.30;;;;;;4229607;28;20079;-40
2020/12/17 01:49:05;;;;;;;2.65;0.65;;;15.60;89.30;;;;;;4229018;28;20058;-40
2020/12/17 01:51:26;;;;;;;0.82;0.82;;;15.60;89.30;;;;;;4227892;28;20055;-40
2020/12/17 01:53:47;;;;;;;0.68;0.68;;;15.70;89.30;;;;;;4228755;28;20055;-40
2020/12/17 01:56:11;;;;;;;0.15;0.15;;;15.80;88.50;;;;;;4228763;28;20051;-40
2020/12/17 01:58:38;;;;;;;0.00;0.00;;;16.00;87.60;;;;;;4228819;28;20489;-40
2020/12/17 02:01:01;;;;;;;0.15;0.15;;;16.10;87.00;;;;;;4229195;28;20758;-40
2020/12/17 02:03:25;;;;;;;0.00;0.00;;;16.20;86.50;;;;;;4228759;28;20055;-40
2020/12/17 02:05:46;;;;;;;0.05;0.05;;;16.20;86.40;;;;;;4229289;28;20158;-41
2020/12/17 02:08:08;;;;;;;0.20;0.20;;;16.20;86.50;;;;;;4228653;28;20164;-40
2020/12/17 02:10:29;;;;;;;0.22;0.22;;;16.10;86.60;;;;;;4228828;28;20516;-40
2020/12/17 02:12:50;;;;;;;0.88;0.88;;;16.10;86.90;;;;;;4229231;28;20528;-40
2020/12/17 02:15:11;;;;;;;0.60;0.60;;;16.20;86.70;;;;;;4227684;28;20103;-41
2020/12/17 02:17:33;;;;;;;0.08;0.08;;;16.30;86.10;;;;;;4228498;28;20044;-40
2020/12/17 02:19:55;;;;;;;0.00;0.00;;;16.40;85.60;;;;;;4228712;28;20050;-40
2020/12/17 02:22:16;;;;;;;0.10;0.10;;;16.40;85.30;;;;;;4228934;28;20055;-41
2020/12/17 02:24:38;;;;;;;0.47;0.47;;;16.40;85.30;;;;;;4212019;28;20143;-40
2020/12/17 02:27:00;;;;;;;0.00;0.00;;;16.40;85.30;;;;;;4214326;28;20075;-40
2020/12/17 02:29:21;;;;;;;2.30;1.10;;;16.30;85.50;;;;;;4232566;27;20096;-42
2020/12/17 02:31:42;;;;;;;0.05;0.05;;;16.30;85.70;;;;;;4231755;28;20047;-40
2020/12/17 02:34:03;;;;;;;0.73;0.73;;;16.30;86.00;;;;;;4231746;28;20489;-41
2020/12/17 02:36:25;;;;;;;0.00;0.00;;;16.20;86.20;;;;;;4232507;28;20047;-40
2020/12/17 02:38:46;;;;;;;0.32;0.32;;;16.10;86.40;;;;;;4231601;28;20131;-40
2020/12/17 02:41:08;;;;;;;0.28;0.28;;;16.10;86.70;;;;;;4231701;28;20040;-41
2020/12/17 02:43:29;;;;;;;0.10;0.10;;;16.00;87.00;;;;;;4232480;28;20047;-40
2020/12/17 02:45:52;;;;;;;0.00;0.00;;;15.90;87.20;;;;;;4231975;28;20082;-40
2020/12/17 02:48:14;;;;;;;1.27;0.52;;;15.90;87.50;;;;;;4231516;28;20048;-40
2020/12/17 02:50:35;;;;;;;0.32;0.32;;;15.80;87.80;;;;;;4232017;27;20058;-40
2020/12/17 02:52:56;;;;;;;1.02;1.00;;;15.80;88.10;;;;;;4232555;28;20051;-40
2020/12/17 02:55:16;;;;;;;0.00;0.00;;;15.90;87.90;;;;;;4232291;28;20080;-41
2020/12/17 02:57:38;;;;;;;1.00;1.00;;;16.10;86.90;;;;;;4231455;28;20059;-41
2020/12/17 02:59:59;;;;;;;0.10;0.10;;;16.30;85.80;;;;;;4231772;28;20044;-40
2020/12/17 03:02:20;;;;;;;0.25;0.25;;;16.50;85.10;;;;;;4231939;28;20451;-40
2020/12/17 03:04:41;;;;;;;0.20;0.20;;;16.60;84.70;;;;;;4215063;28;20051;-40
2020/12/17 03:07:02;;;;;;;0.03;0.03;;;16.60;84.50;;;;;;4220449;28;20122;-39
2020/12/17 03:09:23;;;;;;;0.00;0.00;;;16.60;84.50;;;;;;4231804;28;20058;-41
2020/12/17 03:11:44;;;;;;;0.00;0.00;;;16.50;84.70;;;;;;4232201;28;20464;-40
2020/12/17 03:14:05;;;;;;;0.32;0.32;;;16.50;84.70;;;;;;4231826;28;20059;-40
2020/12/17 03:16:26;;;;;;;0.13;0.13;;;16.40;85.00;;;;;;4231434;28;20056;-40
2020/12/17 03:18:47;;;;;;;0.00;0.00;;;16.30;85.20;;;;;;4231437;28;20514;-40
2020/12/17 03:21:11;;;;;;;0.88;0.15;;;16.30;85.60;;;;;;4231535;28;20108;-40
2020/12/17 03:23:32;;;;;;;0.00;0.00;;;16.20;85.80;;;;;;4231326;28;20498;-40
2020/12/17 03:25:53;;;;;;;0.00;0.00;;;16.20;86.10;;;;;;4231469;28;20057;-41
2020/12/17 03:28:14;;;;;;;0.32;0.32;;;16.30;85.70;;;;;;4217478;28;20055;-40
2020/12/17 03:30:36;;;;;;;0.13;0.13;;;16.40;85.20;;;;;;4231123;28;20059;-40
2020/12/17 03:32:57;;;;;;;0.00;0.00;;;16.40;84.90;;;;;;4231192;28;20056;-40
2020/12/17 03:35:18;;;;;;;0.65;0.35;;;16.50;84.90;;;;;;4231356;28;20074;-40
2020/12/17 03:37:38;;;;;;;0.20;0.20;;;16.50;84.90;;;;;;4231105;28;20552;-40
2020/12/17 03:39:59;;;;;;;0.00;0.00;;;16.40;85.00;;;;;;4230467;28;20048;-40
2020/12/17 03:42:20;;;;;;;0.70;0.70;;;16.40;85.30;;;;;;4230938;28;20055;-40
2020/12/17 03:44:41;;;;;;;1.27;1.25;;;16.30;85.50;;;;;;4231073;28;20508;-40
2020/12/17 03:47:02;;;;;;;0.00;0.00;;;16.30;85.50;;;;;;4231063;28;20870;-40
2020/12/17 03:49:26;;;;;;;0.00;0.00;;;16.30;85.50;;;;;;4230472;28;20417;-41
2020/12/17 03:51:48;;;;;;;0.00;0.00;;;16.30;85.50;;;;;;4231548;28;20057;-40
2020/12/17 03:54:08;;;;;;;0.05;0.05;;;16.30;85.60;;;;;;4231212;28;20051;-40
2020/12/17 03:56:29;;;;;;;0.32;0.32;;;16.30;85.80;;;;;;4230679;28;20050;-40
2020/12/17 03:58:50;;;;;;;1.88;0.55;;;16.20;85.90;;;;;;4230920;28;20501;-40
2020/12/17 04:01:11;;;;;;;0.22;0.22;;;16.20;86.20;;;;;;4230979;28;20805;-40
2020/12/17 04:03:32;;;;;;;0.03;0.03;;;16.10;86.50;;;;;;4230721;28;20047;-41
2020/12/17 04:05:54;;;;;;;0.00;0.00;;;16.20;86.10;;;;;;4230824;28;20051;-40
2020/12/17 04:08:14;;;;;;;0.25;0.25;;;16.40;85.60;;;;;;4213917;28;20078;-40
2020/12/17 04:10:35;;;;;;;0.00;0.00;;;16.40;85.10;;;;;;4213863;28;20052;-40
2020/12/17 04:12:56;;;;;;;1.40;0.52;;;16.50;84.90;;;;;;4222107;28;20126;-40
2020/12/17 04:15:17;;;;;;;0.65;0.65;;;16.40;84.90;;;;;;4230407;27;20558;-40
2020/12/17 04:17:38;;;;;;;0.00;0.00;;;16.50;84.90;;;;;;4229288;28;20055;-40
2020/12/17 04:20:00;;;;;;;0.22;0.22;;;16.60;84.50;;;;;;4230629;28;20691;-41
2020/12/17 04:22:21;;;;;;;0.10;0.10;;;16.60;84.30;;;;;;4230373;28;20414;-40
2020/12/17 04:24:42;;;;;;;0.25;0.17;;;16.60;84.30;;;;;;4230323;28;20052;-40
2020/12/17 04:27:02;;;;;;;0.00;0.00;;;16.50;84.30;;;;;;4230551;28;20586;-40
2020/12/17 04:29:24;;;;;;;0.28;0.28;;;16.60;84.40;;;;;;4230507;28;20108;-42
2020/12/17 04:31:44;;;;;;;0.00;0.00;;;16.60;84.10;;;;;;4230353;28;20104;-41
2020/12/17 04:34:06;;;;;;;0.13;0.13;;;16.60;83.80;;;;;;4230096;28;20502;-40
2020/12/17 04:36:29;;;;;;;0.00;0.00;;;16.60;83.80;;;;;;4230250;28;20059;-40
2020/12/17 04:38:50;;;;;;;4.13;0.35;;;16.60;83.90;;;;;;4230297;28;20058;-41
2020/12/17 04:41:12;;;;;;;;;;;16.60;84.10;;;;;;4230684;28;20062;-41
2020/12/17 04:43:36;;;;;;;0.40;0.40;;;16.50;84.30;;;;;;4229844;28;20343;-39
2020/12/17 04:45:58;;;;;;;0.20;0.20;;;16.50;84.60;;;;;;4230214;28;20445;-40
2020/12/17 04:48:25;;;;;;;0.00;0.00;;;16.40;84.90;;;;;;4230039;28;20055;-40
2020/12/17 04:50:46;;;;;;;0.10;0.10;;;16.40;85.30;;;;;;4230495;28;20051;-40
2020/12/17 04:53:14;;;;;;;0.00;0.00;;;16.40;85.40;;;;;;4230075;28;20059;-40
2020/12/17 04:55:37;;;;;;;0.00;0.00;;;16.50;84.80;;;;;;4229986;28;20066;-40
2020/12/17 04:57:59;;;;;;;0.10;0.10;;;16.60;84.40;;;;;;4229807;28;20047;-40
2020/12/17 05:00:20;;;;;;;0.45;0.45;;;16.60;84.00;;;;;;4229939;28;20048;-40
2020/12/17 05:02:46;;;;;;;0.77;0.77;;;16.60;84.00;;;;;;4229472;28;20043;-40
2020/12/17 05:05:07;;;;;;;0.60;0.60;;;16.60;84.10;;;;;;4229810;28;20075;-40
2020/12/17 05:07:28;;;;;;;0.30;0.30;;;16.50;84.20;;;;;;4230009;28;20052;-40
2020/12/17 05:09:51;;;;;;;0.05;0.05;;;16.50;84.40;;;;;;4230167;28;20052;-40
2020/12/17 05:12:12;;;;;;;0.98;0.98;;;16.40;84.80;;;;;;4229965;28;20051;-40
2020/12/17 05:14:34;;;;;;;0.22;0.22;;;16.40;85.10;;;;;;4230234;28;20058;-40
2020/12/17 05:16:55;;;;;;;0.00;0.00;;;16.30;85.40;;;;;;4230029;27;20051;-40
2020/12/17 05:19:17;;;;;;;0.00;0.00;;;16.30;85.50;;;;;;4230354;28;20054;-40
2020/12/17 05:21:40;;;;;;;0.65;0.65;;;16.40;85.20;;;;;;4229896;28;20048;-41
2020/12/17 05:24:01;;;;;;;0.00;0.00;;;16.40;84.90;;;;;;4229595;28;20497;-40
2020/12/17 05:26:25;;;;;;;0.17;0.17;;;16.50;84.90;;;;;;4229655;28;20143;-40
2020/12/17 05:28:50;;;;;;;0.28;0.28;;;16.40;84.90;;;;;;4229047;28;20054;-40
2020/12/17 05:31:20;;;;;;;0.20;0.20;;;16.40;85.10;;;;;;4229453;27;20094;-39
2020/12/17 05:33:43;;;;;;;0.00;0.00;;;16.30;85.30;;;;;;4229434;28;20408;-40
2020/12/17 05:36:04;;;;;;;0.85;0.85;;;16.30;85.60;;;;;;4229451;28;20130;-40
2020/12/17 05:38:25;;;;;;;1.10;1.00;;;16.40;85.10;;;;;;4229584;28;20155;-40
2020/12/17 05:40:47;;;;;;;0.00;0.00;;;16.70;84.00;;;;;;4229297;28;20051;-40
2020/12/17 05:43:10;;;;;;;0.03;0.03;;;16.90;82.90;;;;;;4229382;28;20144;-41
2020/12/17 05:45:31;;;;;;;0.47;0.47;;;17.00;82.90;;;;;;4229005;28;20826;-40
2020/12/17 05:48:07;;;;;;;;;;;17.10;81.80;;;;;;4224024;28;20059;-40
2020/12/17 05:50:29;;;;;;;0.03;0.03;;;17.10;81.80;;;;;;4229282;28;20723;-40
2020/12/17 05:52:53;;;;;;;0.10;0.10;;;17.10;81.90;;;;;;4229282;28;20572;-40
2020/12/17 05:55:15;;;;;;;0.10;0.10;;;17.10;81.80;;;;;;4228904;28;20066;-41
2020/12/17 05:57:50;;;;;;;0.68;0.68;;;17.10;81.70;;;;;;4223888;28;20043;-41
2020/12/17 06:00:12;;;;;;;0.80;0.80;;;17.00;81.80;;;;;;4229253;28;20075;-41
2020/12/17 06:02:34;;;;;;;0.38;0.38;;;17.00;82.00;;;;;;4228347;28;20055;-41
2020/12/17 06:05:04;;;;;;;0.00;0.00;;;17.00;82.10;;;;;;4229142;28;20150;-41
2020/12/17 06:07:33;;;;;;;0.00;0.00;;;17.00;82.10;;;;;;4228647;28;20156;-40
2020/12/17 06:10:08;;;;;;;0.40;0.40;;;17.00;82.30;;;;;;4229128;28;20055;-40
2020/12/17 06:12:33;;;;;;;0.00;0.00;;;16.90;82.50;;;;;;4229032;28;20055;-41
2020/12/17 06:14:54;;;;;;;0.15;0.10;;;16.80;82.90;;;;;;4229557;28;20521;-41
2020/12/17 06:17:24;;;;;;;0.00;0.00;;;16.70;83.30;;;;;;4229042;28;20562;-40
2020/12/17 06:19:47;;;;;;;0.35;0.35;;;16.70;84.30;;;;;;4229484;28;20058;-42
2020/12/17 06:22:10;;;;;;;0.45;0.45;;;16.70;85.20;;;;;;4229536;28;20051;-41
2020/12/17 06:24:31;;;;;;;0.57;0.57;;;16.80;85.10;;;;;;4229444;28;20073;-41
2020/12/17 06:26:55;;;;;;;0.10;0.10;;;16.90;84.50;;;;;;4229164;28;20741;-41
2020/12/17 06:29:19;;;;;;;1.00;0.43;;;17.10;83.50;;;;;;4229507;28;20109;-41
2020/12/17 06:31:53;;;;;;;0.20;0.20;;;17.40;82.40;;;;;;4228031;28;20128;-41
2020/12/17 06:34:19;;;;;;;1.27;0.90;;;17.50;81.30;;;;;;4228674;28;20781;-40
2020/12/17 06:36:43;;;;;;;0.20;0.20;;;17.50;80.70;;;;;;4228502;28;20048;-40
2020/12/17 06:39:05;;;;;;;0.52;0.52;;;17.50;80.70;;;;;;4228665;28;20059;-41
2020/12/17 06:41:30;;;;;;;;;;;17.40;80.70;;;;;;4229636;28;20578;-41
2020/12/17 06:43:51;;;;;;;0.00;0.00;;;17.30;81.00;;;;;;4226114;28;20460;-40
2020/12/17 06:46:34;;;;;;;1.90;0.75;;;17.30;81.20;;;;;;4214831;28;20052;-41
2020/12/17 06:48:54;;;;;;;0.20;0.20;;;17.20;81.60;;;;;;4229022;28;20130;-41
2020/12/17 06:51:34;;;;;;;0.10;0.10;;;17.10;81.90;;;;;;4226852;28;20058;-41
2020/12/17 06:53:58;;;;;;;0.25;0.25;;;16.90;82.30;;;;;;4229069;28;20554;-41
2020/12/17 06:56:19;;;;;;;0.00;0.00;;;16.90;82.70;;;;;;4211787;28;20506;-41
2020/12/17 06:58:40;;;;;;;1.73;1.45;;;16.70;83.00;;;;;;4211983;28;20058;-41
2020/12/17 07:01:01;;;;;;;0.35;0.35;;;16.70;83.40;;;;;;4211985;28;20048;-41
2020/12/17 07:03:43;;;;;;;3.42;0.63;;;16.60;83.90;;;;;;4226678;28;20411;-41
2020/12/17 07:06:12;;;;;;;0.20;0.20;;;16.40;84.30;;;;;;4211708;28;20092;-41
2020/12/17 07:08:36;;;;;;;3.08;1.80;;;16.30;84.80;;;;;;4228098;28;20044;-40
2020/12/17 07:11:01;;;;;;;0.00;0.00;;;16.30;84.70;;;;;;4211723;28;20052;-39
2020/12/17 07:13:39;;;;;;;0.00;0.00;;;16.40;84.40;;;;;;4217816;28;20500;-41
2020/12/17 07:16:01;;;;;;;0.00;0.00;;;16.50;84.00;;;;;;4232037;27;20585;-40
2020/12/17 07:18:23;;;;;;;0.00;0.00;;;16.60;83.60;;;;;;4231834;28;20071;-40
2020/12/17 07:20:45;;;;;;;0.10;0.10;;;16.60;83.20;;;;;;4231684;28;20051;-41
2020/12/17 07:23:08;;;;;;;1.23;1.23;;;16.60;83.00;;;;;;4231201;28;20079;-40
2020/12/17 07:25:34;;;;;;;0.00;0.00;;;16.60;82.70;;;;;;4229924;28;20058;-41
2020/12/17 07:27:58;;;;;;;0.08;0.08;;;16.70;82.50;;;;;;4231647;28;20601;-41
2020/12/17 07:30:26;;;;;;;0.38;0.38;;;16.60;82.40;;;;;;4231228;28;20058;-43
2020/12/17 07:32:50;;;;;;;0.10;0.10;;;16.70;82.40;;;;;;4231377;28;20108;-42
2020/12/17 07:35:20;;;;;;;0.17;0.17;;;16.80;81.70;;;;;;4231413;27;20395;-45
2020/12/17 07:37:44;;;;;;;6.82;0.75;;;17.00;80.90;;;;;;4231035;28;20048;-41
2020/12/17 07:40:16;;;;;;;0.50;0.50;;;17.00;80.80;;;;;;4230991;27;20490;-42
2020/12/17 07:42:38;;;;;;;0.63;0.63;;;17.10;80.80;;;;;;4231405;28;20070;-42
2020/12/17 07:44:59;;;;;;;0.00;0.00;;;17.00;80.80;;;;;;4231253;28;20563;-41
2020/12/17 07:47:21;;;;;;;0.00;0.00;;;17.00;80.90;;;;;;4231305;28;20052;-40
2020/12/17 07:49:42;;;;;;;0.10;0.10;;;16.90;81.10;;;;;;4231078;28;20096;-43
2020/12/17 07:52:03;;;;;;;0.00;0.00;;;16.80;81.30;;;;;;4231233;28;20100;-41
2020/12/17 07:54:24;;;;;;;0.47;0.47;;;16.70;81.80;;;;;;4231166;28;20051;-41
2020/12/17 07:56:45;;;;;;;0.75;0.75;;;16.60;82.20;;;;;;4231206;28;20498;-41
2020/12/17 07:59:07;;;;;;;0.10;0.10;;;16.60;82.60;;;;;;4230954;28;20056;-41
2020/12/17 08:01:28;;;;;;;0.00;0.00;;;16.60;82.80;;;;;;4230731;28;20501;-41
2020/12/17 08:03:50;;;;;;;0.65;0.65;;;16.60;82.60;;;;;;4230890;28;20081;-41
2020/12/17 08:06:13;;;;;;;0.08;0.08;;;16.60;82.20;;;;;;4231017;28;20055;-41
2020/12/17 08:08:37;;;;;;;0.75;0.75;;;16.70;82.30;;;;;;4231017;28;20098;-40
2020/12/17 08:10:58;;;;;;;;;;;16.80;82.10;;;;;;4231146;28;20142;-40
2020/12/17 08:13:20;;;;;;;1.52;1.45;;;16.90;81.40;;;;;;4230947;28;20373;-45
2020/12/17 08:15:42;;;;;;;0.45;0.40;;;17.00;80.80;;;;;;4230719;28;20151;-41
2020/12/17 08:18:05;;;;;;;0.00;0.00;;;17.10;80.20;;;;;;4230679;28;20067;-41
2020/12/17 08:20:26;;;;;;;0.03;0.03;;;17.10;80.00;;;;;;4230807;28;20108;-41
2020/12/17 08:22:48;;;;;;;0.00;0.00;;;17.10;80.20;;;;;;4230821;28;20051;-41
2020/12/17 08:25:09;;;;;;;0.10;0.10;;;17.00;80.30;;;;;;4230195;28;20500;-41
2020/12/17 08:27:30;;;;;;;0.22;0.22;;;16.90;80.80;;;;;;4230314;28;20055;-41
2020/12/17 08:29:51;;;;;;;0.00;0.00;;;16.80;81.20;;;;;;4230770;28;20793;-40
2020/12/17 08:32:13;;;;;;;0.98;0.98;;;16.70;81.30;;;;;;4230541;28;20056;-40
2020/12/17 08:34:35;;;;;;;0.75;0.75;;;16.60;81.50;;;;;;4230496;28;20628;-41
2020/12/17 08:36:56;;;;;;;0.10;0.10;;;16.50;81.80;;;;;;4230089;28;20222;-41
2020/12/17 08:39:18;;;;;;;0.40;0.40;;;16.50;82.10;;;;;;4230445;28;20047;-40
2020/12/17 08:41:47;;;;;;;0.45;0.45;;;16.40;82.60;;;;;;4230408;28;20152;-41
2020/12/17 08:44:11;;;;;;;0.45;0.45;;;16.30;83.00;;;;;;4230528;28;20152;-41
2020/12/17 08:46:34;;;;;;;0.00;0.00;;;16.20;83.40;;;;;;4230388;27;20494;-41
2020/12/17 08:48:57;;;;;;;3.90;0.35;;;16.10;83.90;;;;;;4230419;28;20094;-41
2020/12/17 08:51:20;;;;;;;0.93;0.93;;;16.10;84.20;;;;;;4230008;28;20414;-41
2020/12/17 08:53:42;;;;;;;0.00;0.00;;;16.00;84.50;;;;;;4230104;28;20047;-41
2020/12/17 08:56:05;;;;;;;0.65;0.65;;;16.00;84.80;;;;;;4229910;28;20117;-41
2020/12/17 08:58:27;;;;;;;0.00;0.00;;;16.20;84.30;;;;;;4230070;28;20054;-42
2020/12/17 09:00:48;;;;;;;0.00;0.00;;;16.30;83.80;;;;;;4230266;28;20052;-41
2020/12/17 09:03:08;;;;;;;0.52;0.52;;;16.30;83.50;;;;;;4230202;28;20055;-40
2020/12/17 09:05:30;;;;;;;0.05;0.05;;;16.30;82.90;;;;;;4230223;27;20048;-41
2020/12/17 09:07:53;;;;;;;0.00;0.00;;;16.30;82.60;;;;;;4230001;28;20059;-41
2020/12/17 09:10:15;;;;;;;0.05;0.05;;;16.30;82.50;;;;;;4229834;28;20047;-41
2020/12/17 09:12:37;;;;;;;0.05;0.05;;;16.30;82.60;;;;;;4229965;28;20087;-41
2020/12/17 09:15:05;;;;;;;0.88;0.88;;;16.20;82.60;;;;;;4229983;28;20058;-41
2020/12/17 09:17:26;;;;;;;0.00;0.00;;;16.10;82.80;;;;;;4229995;28;20051;-41
2020/12/17 09:19:52;;;;;;;0.00;0.00;;;16.10;83.10;;;;;;4229727;28;20052;-41
2020/12/17 09:22:14;;;;;;;0.10;0.10;;;16.00;83.30;;;;;;4229714;28;20048;-40
2020/12/17 09:24:36;;;;;;;0.20;0.20;;;16.00;83.40;;;;;;4229724;28;20051;-41
2020/12/17 09:27:15;;;;;;;0.30;0.30;;;15.90;83.40;;;;;;4229848;28;20460;-41
2020/12/17 09:29:36;;;;;;;0.10;0.10;;;15.80;83.80;;;;;;4229518;28;20058;-41
2020/12/17 09:31:58;;;;;;;0.00;0.00;;;15.80;84.00;;;;;;4229277;28;20130;-41
2020/12/17 09:34:19;;;;;;;0.10;0.10;;;15.70;84.10;;;;;;4229577;28;20053;-41
2020/12/17 09:36:43;;;;;;;0.00;0.00;;;15.70;84.40;;;;;;4228842;28;20056;-41
2020/12/17 09:39:07;;;;;;;0.20;0.20;;;15.70;84.60;;;;;;4229474;28;20060;-41
2020/12/17 09:41:29;;;;;;;0.00;0.00;;;15.60;84.70;;;;;;4229280;28;20109;-41
2020/12/17 09:43:49;;;;;;;0.38;0.38;;;15.60;84.80;;;;;;4229301;28;20051;-40
2020/12/17 09:46:12;;;;;;;0.08;0.08;;;15.50;84.90;;;;;;4229642;28;20051;-41
2020/12/17 09:48:33;;;;;;;0.22;0.22;;;15.50;85.10;;;;;;4229517;28;20048;-41
2020/12/17 09:50:57;;;;;;;21.92;1.35;;;15.60;85.40;;;;;;4229099;28;20052;-41
2020/12/17 09:53:19;;;;;;;0.43;0.22;;;15.80;84.30;;;;;;4229317;28;20048;-40
2020/12/17 09:55:41;;;;;;;0.03;0.03;;;16.00;83.20;;;;;;4212289;28;20056;-41
2020/12/17 09:58:03;;;;;;;0.00;0.00;;;16.10;82.40;;;;;;4212562;28;20109;-41
2020/12/17 10:00:24;;;;;;;0.47;0.15;;;16.10;82.00;;;;;;4221995;28;20059;-40
2020/12/17 10:02:45;;;;;;;0.10;0.10;;;16.20;81.70;;;;;;4228018;28;20510;-40
2020/12/17 10:05:08;;;;;;;0.00;0.00;;;16.20;81.60;;;;;;4229223;28;20058;-41
2020/12/17 10:07:31;;;;;;;0.68;0.68;;;16.20;81.60;;;;;;4229415;28;20069;-41
2020/12/17 10:09:53;;;;;;;0.60;0.60;;;16.10;81.60;;;;;;4228836;28;20047;-40
2020/12/17 10:12:28;;;;;;;0.60;0.60;;;16.10;81.80;;;;;;4229137;28;20055;-41
2020/12/17 10:14:49;;;;;;;1.75;1.55;;;16.20;81.50;;;;;;4229063;28;20144;-41
2020/12/17 10:17:11;;;;;;;0.20;0.20;;;16.20;81.30;;;;;;4229148;28;20055;-41
2020/12/17 10:19:32;;;;;;;1.45;1.45;;;16.20;81.20;;;;;;4212295;28;20807;-41
2020/12/17 10:21:52;;;;;;;0.17;0.17;;;16.20;81.30;;;;;;4212349;28;20048;-41
2020/12/17 10:24:13;;;;;;;0.00;0.00;;;16.30;81.00;;;;;;4212609;28;20053;-41
2020/12/17 10:26:34;;;;;;;0.00;0.00;;;16.30;80.60;;;;;;4212195;28;20052;-43
2020/12/17 10:28:58;;;;;;;0.20;0.20;;;16.40;80.30;;;;;;4223869;28;20502;-41
2020/12/17 10:31:19;;;;;;;1.00;0.35;;;16.40;80.20;;;;;;4228983;28;20108;-41
2020/12/17 10:33:40;;;;;;;0.10;0.10;;;16.30;80.20;;;;;;4229084;28;20058;-41
2020/12/17 10:36:01;;;;;;;0.22;0.22;;;16.30;80.50;;;;;;4227555;28;20044;-41
2020/12/17 10:38:22;;;;;;;0.15;0.15;;;16.40;80.30;;;;;;4228808;28;20075;-41
2020/12/17 10:40:44;;;;;;;0.28;0.28;;;16.50;79.50;;;;;;4228946;28;20116;-41
2020/12/17 10:43:04;;;;;;;0.00;0.00;;;16.60;79.20;;;;;;4229023;28;20059;-43
2020/12/17 10:45:26;;;;;;;0.05;0.05;;;16.60;79.00;;;;;;4228531;28;20048;-45
2020/12/17 10:47:48;;;;;;;0.88;0.68;;;16.50;78.90;;;;;;4228949;28;20048;-41
2020/12/17 10:50:09;;;;;;;2.20;0.63;;;16.50;79.10;;;;;;4232265;28;20827;-41
2020/12/17 10:52:30;;;;;;;0.98;0.75;;;16.40;79.30;;;;;;4231477;28;20062;-41
2020/12/17 10:54:51;;;;;;;;;;;16.30;79.60;;;;;;4232193;28;20502;-41
2020/12/17 10:57:12;;;;;;;0.55;0.43;;;16.20;79.80;;;;;;4232096;27;19920;-40
2020/12/17 10:59:33;;;;;;;0.00;0.00;;;16.10;80.00;;;;;;4232169;28;20071;-41
2020/12/17 11:01:56;;;;;;;0.00;0.00;;;16.10;80.50;;;;;;4232090;28;20490;-41
2020/12/17 11:04:17;;;;;;;0.20;0.20;;;16.10;80.60;;;;;;4231801;28;20140;-41
2020/12/17 11:06:38;;;;;;;0.65;0.65;;;16.20;79.80;;;;;;4232014;27;20052;-41
2020/12/17 11:08:59;;;;;;;0.00;0.00;;;16.40;78.70;;;;;;4231697;28;20501;-41
2020/12/17 11:11:19;;;;;;;0.30;0.30;;;16.50;78.40;;;;;;4231611;28;20052;-41
2020/12/17 11:13:40;;;;;;;0.10;0.10;;;16.50;78.10;;;;;;4231640;28;20154;-41
2020/12/17 11:16:00;;;;;;;0.28;0.28;;;16.50;78.10;;;;;;4231906;27;20051;-42
2020/12/17 11:18:23;;;;;;;0.00;0.00;;;16.50;78.20;;;;;;4231838;28;20054;-41
2020/12/17 11:20:44;;;;;;;0.63;0.63;;;16.40;78.30;;;;;;4231798;28;20050;-41
2020/12/17 11:23:05;;;;;;;0.30;0.30;;;16.30;78.60;;;;;;4231631;28;20606;-42
2020/12/17 11:25:26;;;;;;;0.00;0.00;;;16.30;79.00;;;;;;4231938;27;20058;-42
2020/12/17 11:27:49;;;;;;;0.30;0.22;;;16.30;78.80;;;;;;4231747;28;20071;-41
2020/12/17 11:30:13;;;;;;;0.10;0.10;;;16.50;78.20;;;;;;4231678;27;20054;-41
2020/12/17 11:32:33;;;;;;;0.45;0.45;;;16.60;77.40;;;;;;4231423;27;20051;-40
2020/12/17 11:34:56;;;;;;;0.20;0.20;;;16.60;76.90;;;;;;4231380;28;20051;-41
2020/12/17 11:37:17;;;;;;;0.20;0.20;;;16.60;76.90;;;;;;4231215;28;20059;-41
2020/12/17 11:39:37;;;;;;;5.43;1.27;;;16.60;77.00;;;;;;4230476;28;20051;-41
2020/12/17 11:41:58;;;;;;;0.00;0.00;;;16.60;77.10;;;;;;4231445;28;20058;-41
2020/12/17 11:44:19;;;;;;;1.27;1.25;;;16.50;78.20;;;;;;4231116;28;20770;-41
2020/12/17 11:46:40;;;;;;;0.00;0.00;;;16.40;77.80;;;;;;4231378;27;20106;-41
2020/12/17 11:49:03;;;;;;;0.10;0.10;;;16.30;78.20;;;;;;4229933;28;20051;-40
2020/12/17 11:51:24;;;;;;;0.85;0.85;;;16.30;78.20;;;;;;4231166;28;20047;-40
2020/12/17 11:53:45;;;;;;;0.32;0.32;;;16.30;78.20;;;;;;4231257;28;20151;-41
2020/12/17 11:56:07;;;;;;;2.67;2.17;;;16.30;78.50;;;;;;4230957;28;20129;-40
2020/12/17 11:58:28;;;;;;;0.10;0.10;;;16.20;78.80;;;;;;4231246;28;20602;-40
2020/12/17 12:00:52;;;;;;;0.75;0.75;;;16.20;79.00;;;;;;4227502;28;20130;-41
2020/12/17 12:03:16;;;;;;;1.05;1.05;;;16.20;78.50;;;;;;4230516;28;20059;-40
2020/12/17 12:05:37;;;;;;;0.85;0.85;;;16.30;78.30;;;;;;4231144;27;20055;-41
2020/12/17 12:07:58;;;;;;;1.20;0.70;;;16.30;78.10;;;;;;4230719;28;20043;-40
2020/12/17 12:10:20;;;;;;;0.63;0.63;;;16.30;78.20;;;;;;4230990;28;20055;-41
2020/12/17 12:12:41;;;;;;;;;;;16.30;78.50;;;;;;4231353;28;20066;-41
2020/12/17 12:15:02;;;;;;;0.03;0.03;;;16.20;78.80;;;;;;4230988;28;19963;-40
2020/12/17 12:17:23;;;;;;;;;;;16.20;79.30;;;;;;4231136;28;20138;-41
2020/12/17 12:19:43;;;;;;;0.10;0.10;;;16.30;79.40;;;;;;4230790;28;20355;-41
2020/12/17 12:22:04;;;;;;;0.20;0.20;;;16.40;78.90;;;;;;4230793;28;20051;-41